Latest Coastal Weather Observations for Croker Island Airport

IDD60701

Issued at 7:02 pm CST Sunday 19 April 2015 (issued every 10 minutes, with the page automatically refreshed every 10 minutes)

About coastal observations | Map of coastal stations | Coastal observations for NT | Marine services | Other Formats
Station Details ID: 014308 Name: CROKER ISLAND AIRPORT Lat: -11.16 Lon: 132.48 Height: 9.2 m
Data from the previous 72 hours. | See also: Recent months for locations in Northern Territory
Date/Time
CST
Temp

°C
Wind Pressure Rain
since 9am
mm
Weather Cloud Vis
km
Sea
Height
m
Swell
Dir
 
Speed
knots
Gust
knots
hPa Trend Height
m
Period
s
Dir
19/07:00pm 27.2 ENE 1 3 1009.2 - 0.0 - - - - - - -
19/06:30pm 28.7 ENE 2 4 1008.9 - 0.0 - - - - - - -
19/06:00pm 29.6 ENE 6 10 1009.0 - 0.0 - - - - - - -
19/05:30pm 30.3 ENE 8 12 1009.1 - 0.0 - - - - - - -
19/05:00pm 30.8 ENE 8 12 1008.9 - 0.0 - - - - - - -
19/04:30pm 31.3 E 9 14 1009.1 - 0.0 - - - - - - -
19/04:00pm 32.0 ENE 9 13 1009.1 - 0.0 - - - - - - -
19/03:30pm 32.1 ENE 9 13 1009.2 - 0.0 - - - - - - -
19/03:00pm 32.2 ENE 11 15 1009.4 - 0.0 - - - - - - -
19/02:30pm 32.3 E 11 14 1009.6 - 0.0 - - - - - - -
19/02:00pm 32.9 E 9 13 1009.8 - 0.0 - - - - - - -
19/01:30pm 32.9 E 9 13 1009.8 - 0.0 - - - - - - -
19/01:00pm 32.7 E 10 15 1010.0 - 0.0 - - - - - - -
19/12:30pm 32.9 ENE 8 14 1010.2 - 0.0 - - - - - - -
19/12:00pm 32.6 E 9 13 1010.8 - 0.0 - - - - - - -
19/11:30am 31.9 E 8 13 1011.1 - 0.0 - - - - - - -
19/11:00am 31.9 E 8 11 1011.4 - 0.0 - - - - - - -
19/10:30am 31.5 E 7 9 1011.7 - 0.0 - - - - - - -
19/10:00am 30.1 ESE 7 11 1012.0 - 0.0 - - - - - - -
19/09:30am 30.7 E 8 11 1012.0 - 0.0 - - - - - - -
19/09:00am 29.8 ESE 8 12 1012.1 - 0.0 - - - - - - -
19/08:30am 29.0 E 7 10 1012.1 - 0.0 - - - - - - -
19/08:00am 27.5 ESE 3 5 1012.0 - 0.0 - - - - - - -
19/07:30am 25.8 E 2 4 1011.9 - 0.0 - - - - - - -
19/07:00am 25.1 ESE 3 4 1011.5 - 0.0 - - - - - - -
19/06:30am 25.0 ESE 3 4 1011.3 - 0.0 - - - - - - -
19/06:00am 24.9 ESE 3 3 1010.9 - 0.0 - - - - - - -
19/05:30am 25.0 E 2 3 1010.7 - 0.0 - - - - - - -
19/05:00am 25.1 E 4 5 1010.5 - 0.0 - - - - - - -
19/04:30am 25.0 E 5 8 1010.4 - 0.0 - - - - - - -
19/04:00am 24.9 E 3 5 1010.5 - 0.0 - - - - - - -
19/03:30am 25.1 NE 2 3 1010.6 - 0.0 - - - - - - -
19/03:00am 25.4 E 6 9 1010.7 - 0.0 - - - - - - -
19/02:30am 26.6 E 3 5 1010.8 - 0.0 - - - - - - -
19/02:00am 26.3 E 3 5 1011.0 - 0.0 - - - - - - -
19/01:30am 26.4 ENE 4 6 1011.2 - 0.0 - - - - - - -
19/01:00am 26.3 ENE 5 6 1011.4 - 0.0 - - - - - - -
19/12:30am 26.3 ENE 5 6 1011.8 - 0.0 - - - - - - -
19/12:00am 26.1 NE 5 6 1011.9 - 0.0 - - - - - - -
 
Date/Time
CST
Temp

°C
Wind Pressure Rain
since 9am
mm
Weather Cloud Vis
km
Sea
Height
m
Swell
Dir
 
Speed
knots
Gust
knots
hPa Trend Height
m
Period
s
Dir
18/11:30pm 26.0 ENE 4 5 1012.0 - 0.0 - - - - - - -
18/11:00pm 26.1 ENE 5 7 1012.0 - 0.0 - - - - - - -
18/10:30pm 26.0 NE 5 7 1012.2 - 0.0 - - - - - - -
18/10:00pm 26.3 ENE 5 7 1012.1 - 0.0 - - - - - - -
18/09:30pm 26.5 ENE 5 7 1011.9 - 0.0 - - - - - - -
18/09:00pm 26.6 ENE 5 7 1011.7 - 0.0 - - - - - - -
18/08:30pm 26.9 ENE 5 7 1011.2 - 0.0 - - - - - - -
18/08:00pm 27.0 ENE 5 7 1010.9 - 0.0 - - - - - - -
18/07:30pm 26.9 ENE 5 6 1010.5 - 0.0 - - - - - - -
18/07:00pm 27.2 ENE 5 7 1010.2 - 0.0 - - - - - - -
18/06:30pm 27.9 ENE 6 9 1009.8 - 0.0 - - - - - - -
18/06:00pm 29.0 ENE 8 11 1009.6 - 0.0 - - - - - - -
18/05:30pm 29.9 ENE 9 12 1009.3 - 0.0 - - - - - - -
18/05:00pm 30.4 E 9 13 1008.8 - 0.0 - - - - - - -
18/04:30pm 30.7 ENE 10 14 1008.6 - 0.0 - - - - - - -
18/04:00pm 31.6 ENE 10 15 1008.5 - 0.0 - - - - - - -
18/03:30pm 31.5 ENE 10 16 1008.7 - 0.0 - - - - - - -
18/03:00pm 31.9 ENE 10 15 1009.1 - 0.0 - - - - - - -
18/02:30pm 32.3 E 9 12 1009.1 - 0.0 - - - - - - -
18/02:00pm 32.1 ESE 9 13 1009.8 - 0.0 - - - - - - -
18/01:30pm 31.9 ESE 8 13 1009.9 - 0.0 - - - - - - -
18/01:00pm 31.4 ESE 9 12 1010.4 - 0.0 - - - - - - -
18/12:30pm 32.0 E 8 12 1010.5 - 0.0 - - - - - - -
18/12:00pm 31.8 E 8 12 1010.9 - 0.0 - - - - - - -
18/11:30am 31.2 ENE 9 13 1011.6 - 0.0 - - - - - - -
18/11:00am 30.3 ESE 7 11 1012.1 - 0.0 - - - - - - -
18/10:30am 30.4 E 10 14 1012.4 - 0.0 - - - - - - -
18/10:00am 30.1 E 7 12 1012.4 - 0.0 - - - - - - -
18/09:30am 27.7 E 9 15 1012.5 - 0.0 - - - - - - -
18/09:00am 28.1 E 7 10 1012.4 - 0.0 - - - - - - -
18/08:30am 27.8 E 7 10 1012.3 - 0.0 - - - - - - -
18/08:00am 26.7 E 4 7 1012.0 - 0.0 - - - - - - -
18/07:30am 25.9 E 3 5 1011.7 - 0.0 - - - - - - -
18/07:00am 25.5 ENE 2 3 1011.4 - 0.0 - - - - - - -
18/06:30am 25.4 E 2 3 1011.0 - 0.0 - - - - - - -
18/06:00am 25.4 E 2 3 1010.6 - 0.0 - - - - - - -
18/05:30am 25.2 E 2 3 1010.5 - 0.0 - - - - - - -
18/05:00am 25.2 NE 3 4 1010.3 - 0.0 - - - - - - -
18/04:30am 25.2 ESE 3 5 1010.1 - 0.0 - - - - - - -
18/04:00am 25.1 E 2 3 1010.2 - 0.0 - - - - - - -
18/03:30am 25.0 E 2 2 1010.0 - 0.0 - - - - - - -
18/03:00am 25.0 E 1 2 1010.1 - 0.0 - - - - - - -
18/02:30am 25.4 ENE 3 3 1010.2 - 0.0 - - - - - - -
18/02:00am 25.4 E 2 3 1010.7 - 0.0 - - - - - - -
18/01:30am 25.6 E 2 2 1010.8 - 0.0 - - - - - - -
18/01:00am 26.1 SE 2 3 1011.0 - 0.0 - - - - - - -
18/12:30am 26.4 ENE 2 3 1011.3 - 0.0 - - - - - - -
18/12:00am 26.6 NE 3 4 1011.5 - 0.0 - - - - - - -
 
Date/Time
CST
Temp

°C
Wind Pressure Rain
since 9am
mm
Weather Cloud Vis
km
Sea
Height
m
Swell
Dir
 
Speed
knots
Gust
knots
hPa Trend Height
m
Period
s
Dir
17/11:30pm 26.7 NE 3 5 1011.7 - 0.0 - - - - - - -
17/11:00pm 26.6 ENE 4 7 1011.7 - 0.0 - - - - - - -
17/10:30pm 26.4 ENE 3 4 1011.7 - 0.0 - - - - - - -
17/10:00pm 26.4 NE 3 4 1011.7 - 0.0 - - - - - - -
17/09:30pm 26.4 ENE 3 3 1011.5 - 0.0 - - - - - - -
17/09:00pm 26.6 ENE 3 3 1011.3 - 0.0 - - - - - - -
17/08:30pm 26.8 ENE 3 5 1011.0 - 0.0 - - - - - - -
17/08:00pm 26.9 ENE 3 5 1010.7 - 0.0 - - - - - - -
17/07:30pm 27.2 ENE 4 6 1010.3 - 0.0 - - - - - - -
17/07:00pm 27.5 ENE 5 6 1010.1 - 0.0 - - - - - - -
17/06:30pm 28.2 E 5 9 1010.0 - 0.0 - - - - - - -
17/06:00pm 29.1 E 7 11 1009.8 - 0.0 - - - - - - -
17/05:30pm 30.2 ENE 8 12 1009.5 - 0.0 - - - - - - -
17/05:00pm 29.7 E 9 15 1009.2 - 0.0 - - - - - - -
17/04:30pm 30.9 ENE 11 15 1009.2 - 0.0 - - - - - - -
17/04:00pm 31.2 E 11 16 1009.1 - 0.0 - - - - - - -
17/03:30pm 31.4 E 10 14 1009.2 - 0.0 - - - - - - -
17/03:00pm 31.5 E 10 14 1009.4 - 0.0 - - - - - - -
17/02:30pm 32.4 E 9 13 1009.7 - 0.0 - - - - - - -
17/02:00pm 31.7 E 10 17 1010.1 - 0.0 - - - - - - -
17/01:30pm 30.6 E 9 15 1010.5 - 0.0 - - - - - - -
17/01:00pm 31.9 E 9 14 1011.0 - 0.0 - - - - - - -
17/12:30pm 30.6 E 8 12 1011.4 - 0.0 - - - - - - -
17/12:00pm 31.5 E 8 12 1011.7 - 0.0 - - - - - - -
17/11:30am 31.7 E 10 14 1011.9 - 0.0 - - - - - - -
17/11:00am 31.2 E 10 14 1012.3 - 0.0 - - - - - - -
17/10:30am 30.0 E 9 13 1012.7 - 0.0 - - - - - - -
17/10:00am 30.2 E 9 13 1012.9 - 0.0 - - - - - - -
17/09:30am 29.7 E 8 11 1012.9 - 0.0 - - - - - - -
17/09:00am 28.4 E 6 11 1012.9 - 0.0 - - - - - - -
17/08:30am 26.9 ESE 3 5 1012.6 - 0.0 - - - - - - -
17/08:00am 26.0 SE 3 4 1012.5 - 0.0 - - - - - - -
17/07:30am 24.6 CALM 0 1 1012.3 - 0.0 - - - - - - -
17/07:00am 24.3 ENE 2 3 1012.1 - 0.0 - - - - - - -
17/06:30am 24.3 NE 2 3 1012.0 - 0.0 - - - - - - -
17/06:00am 24.3 ENE 4 5 1011.9 - 0.0 - - - - - - -
17/05:30am 24.3 E 4 7 1011.3 - 0.0 - - - - - - -
17/05:00am 24.2 E 6 8 1010.8 - 0.0 - - - - - - -
17/04:30am 25.2 NE 6 12 1011.3 - 0.0 - - - - - - -
17/04:00am 25.5 E 4 6 1011.1 - 0.0 - - - - - - -
17/03:30am 25.4 ENE 6 8 1011.4 - 0.0 - - - - - - -
17/03:00am 25.6 ENE 2 3 1011.4 - 0.0 - - - - - - -
17/02:30am 25.4 E 3 5 1011.6 - 0.0 - - - - - - -
17/02:00am 25.4 SE 5 7 1011.8 - 0.0 - - - - - - -
17/01:30am 25.7 E 5 7 1012.3 - 0.0 - - - - - - -
17/01:00am 25.8 SE 6 9 1012.7 - 0.0 - - - - - - -
17/12:30am 26.2 SSE 7 11 1013.2 - 0.0 - - - - - - -
17/12:00am 25.8 ESE 2 3 1013.4 - 0.0 - - - - - - -
 
Date/Time
CST
Temp

°C
Wind Pressure Rain
since 9am
mm
Weather Cloud Vis
km
Sea
Height
m
Swell
Dir
 
Speed
knots
Gust
knots
hPa Trend Height
m
Period
s
Dir
16/11:30pm 26.1 SE 2 3 1013.6 - 0.0 - - - - - - -
16/11:00pm 26.1 ESE 2 3 1013.7 - 0.0 - - - - - - -
16/10:30pm 26.2 ESE 3 4 1013.7 - 0.0 - - - - - - -
16/10:00pm 26.1 ESE 2 3 1013.8 - 0.0 - - - - - - -
16/09:30pm 26.2 E 3 3 1013.6 - 0.0 - - - - - - -
16/09:00pm 26.1 ENE 1 2 1013.3 - 0.0 - - - - - - -
16/08:30pm 26.5 ENE 3 4 1012.9 - 0.0 - - - - - - -
16/08:00pm 26.8 E 3 4 1012.4 - 0.0 - - - - - - -
16/07:30pm 27.0 E 4 6 1011.9 - 0.0 - - - - - - -

Other Formats:

Comma delimited format used in spreadsheet applications
http://www.bom.gov.au/fwo/IDD60701/IDD60701.94108.axf

JavaScript Object Notation format (JSON) in row-major order
http://www.bom.gov.au/fwo/IDD60701/IDD60701.94108.json